createdAt,value
2019-04-06T00:01:10.860Z,19.10
2019-04-06T00:03:39.370Z,19.10
2019-04-06T00:06:08.061Z,19.13
2019-04-06T00:08:36.759Z,19.30
2019-04-06T00:11:05.456Z,19.77
2019-04-06T00:13:33.960Z,19.40
2019-04-06T00:16:02.871Z,18.47
2019-04-06T00:18:31.419Z,19.07
2019-04-06T00:20:59.997Z,18.27
2019-04-06T00:23:28.508Z,18.23
2019-04-06T00:25:57.078Z,18.30
2019-04-06T00:28:25.743Z,18.10
2019-04-06T00:30:58.701Z,17.30
2019-04-06T00:33:28.921Z,17.70
2019-04-06T00:35:57.430Z,17.43
2019-04-06T00:38:26.087Z,18.40
2019-04-06T00:40:54.665Z,19.17
2019-04-06T00:43:23.391Z,18.83
2019-04-06T00:45:52.195Z,18.10
2019-04-06T00:48:20.786Z,17.87
2019-04-06T00:50:49.406Z,18.40
2019-04-06T00:53:17.937Z,18.27
2019-04-06T00:55:55.120Z,18.80
2019-04-06T00:58:16.780Z,17.53
2019-04-06T01:00:45.439Z,17.03
2019-04-06T01:03:14.364Z,17.83
2019-04-06T01:05:42.973Z,18.70
2019-04-06T01:08:11.517Z,18.00
2019-04-06T01:10:40.118Z,16.93
2019-04-06T01:13:08.716Z,17.67
2019-04-06T01:15:37.450Z,17.30
2019-04-06T01:18:05.974Z,17.13
2019-04-06T01:20:34.852Z,17.43
2019-04-06T01:23:03.402Z,18.00
2019-04-06T01:25:32.000Z,17.17
2019-04-06T01:28:00.540Z,17.03
2019-04-06T01:30:29.189Z,17.80
2019-04-06T01:32:57.975Z,18.10
2019-04-06T01:35:26.504Z,17.73
2019-04-06T01:37:55.230Z,17.03
2019-04-06T01:40:23.760Z,17.03
2019-04-06T01:42:52.449Z,17.40
2019-04-06T01:45:21.007Z,17.33
2019-04-06T01:47:49.706Z,17.23
2019-04-06T01:50:18.400Z,17.87
2019-04-06T01:52:47.490Z,18.17
2019-04-06T01:55:16.328Z,16.47
2019-04-06T01:57:45.051Z,17.17
2019-04-06T02:00:15.312Z,17.73
2019-04-06T02:02:48.362Z,18.60
2019-04-06T02:05:16.975Z,19.30
2019-04-06T02:07:45.579Z,18.33
2019-04-06T02:10:14.421Z,17.87
2019-04-06T02:12:43.275Z,18.60
2019-04-06T02:15:12.001Z,19.17
2019-04-06T02:17:40.660Z,19.33
2019-04-06T02:20:09.719Z,18.77
2019-04-06T02:22:38.454Z,18.90
2019-04-06T02:25:08.039Z,19.57
2019-04-06T02:27:36.845Z,18.70
2019-04-06T02:30:18.055Z,18.50
2019-04-06T02:33:04.250Z,18.10
2019-04-06T02:35:52.785Z,18.87
2019-04-06T02:38:28.949Z,18.73
2019-04-06T02:41:14.388Z,19.50
2019-04-06T02:43:42.881Z,19.60
2019-04-06T02:46:11.709Z,19.00
2019-04-06T02:48:40.478Z,18.20
2019-04-06T02:51:09.090Z,19.07
2019-04-06T02:53:37.792Z,18.67
2019-04-06T02:56:06.341Z,17.03
2019-04-06T02:58:36.482Z,17.63
2019-04-06T03:01:05.269Z,19.03
2019-04-06T03:03:33.931Z,17.47
2019-04-06T03:06:02.770Z,17.87
2019-04-06T03:08:31.559Z,17.83
2019-04-06T03:11:00.169Z,18.20
2019-04-06T03:13:28.851Z,18.43
2019-04-06T03:15:57.508Z,17.70
2019-04-06T03:18:26.119Z,17.50
2019-04-06T03:20:55.194Z,17.90
2019-04-06T03:23:24.981Z,18.27
2019-04-06T03:25:54.387Z,19.27
2019-04-06T03:28:23.052Z,17.40
2019-04-06T03:30:51.765Z,17.70
2019-04-06T03:33:20.421Z,17.77
2019-04-06T03:35:50.461Z,17.70
2019-04-06T03:38:19.517Z,19.27
2019-04-06T03:40:48.087Z,17.27
2019-04-06T03:43:16.657Z,18.27
2019-04-06T03:45:45.279Z,18.17
2019-04-06T03:48:13.858Z,17.13
2019-04-06T03:50:42.735Z,17.60
2019-04-06T03:53:11.434Z,18.60
2019-04-06T03:55:40.139Z,17.83
2019-04-06T03:58:08.660Z,19.77
2019-04-06T04:00:37.200Z,17.43
2019-04-06T04:03:05.921Z,17.80
2019-04-06T04:05:34.557Z,17.93
2019-04-06T04:08:03.114Z,17.03
2019-04-06T04:10:34.005Z,16.57
2019-04-06T04:13:02.754Z,16.97
2019-04-06T04:15:31.327Z,16.77
2019-04-06T04:18:00.698Z,16.23
2019-04-06T04:20:29.546Z,15.77
2019-04-06T04:22:58.679Z,17.37
2019-04-06T04:25:27.467Z,16.60
2019-04-06T04:27:56.270Z,18.53
2019-04-06T04:30:32.603Z,18.87
2019-04-06T04:32:55.355Z,21.33
2019-04-06T04:35:23.971Z,26.90
2019-04-06T04:37:52.863Z,27.63
2019-04-06T04:40:21.466Z,27.83
2019-04-06T04:42:50.092Z,29.57
2019-04-06T04:45:18.741Z,31.17
2019-04-06T04:47:50.036Z,31.47
2019-04-06T04:50:17.983Z,31.27
2019-04-06T04:52:46.722Z,33.43
2019-04-06T04:55:16.217Z,28.53
2019-04-06T04:57:45.609Z,26.03
2019-04-06T05:00:14.611Z,24.77
2019-04-06T05:02:43.174Z,23.87
2019-04-06T05:05:12.099Z,23.80
2019-04-06T05:07:40.623Z,22.63
2019-04-06T05:10:09.494Z,23.27
2019-04-06T05:12:38.169Z,22.53
2019-04-06T05:15:15.950Z,24.03
2019-04-06T05:17:44.489Z,21.93
2019-04-06T05:20:13.592Z,21.40
2019-04-06T05:22:42.107Z,22.03
2019-04-06T05:25:11.476Z,20.23
2019-04-06T05:27:50.778Z,20.23
2019-04-06T05:30:10.865Z,20.30
2019-04-06T05:32:39.740Z,20.87
2019-04-06T05:35:08.473Z,20.43
2019-04-06T05:37:37.059Z,20.37
2019-04-06T05:40:06.459Z,20.97
2019-04-06T05:42:35.121Z,21.30
2019-04-06T05:45:05.243Z,20.43
2019-04-06T05:47:34.215Z,21.13
2019-04-06T05:50:02.911Z,20.40
2019-04-06T05:52:31.577Z,21.30
2019-04-06T05:55:00.214Z,20.07
2019-04-06T05:57:31.813Z,20.17
2019-04-06T05:59:59.100Z,20.20
2019-04-06T06:02:27.643Z,20.47
2019-04-06T06:04:56.327Z,20.43
2019-04-06T06:07:24.861Z,22.10
2019-04-06T06:09:53.382Z,21.00
2019-04-06T06:12:22.229Z,20.93
2019-04-06T06:14:50.819Z,21.00
2019-04-06T06:17:19.464Z,20.17
2019-04-06T06:19:48.069Z,20.93
2019-04-06T06:22:16.596Z,21.23
2019-04-06T06:24:45.175Z,22.17
2019-04-06T06:27:14.181Z,21.10
2019-04-06T06:29:42.880Z,21.97
2019-04-06T06:32:11.486Z,20.97
2019-04-06T06:34:40.109Z,21.97
2019-04-06T06:37:08.912Z,23.57
2019-04-06T06:39:38.160Z,22.97
2019-04-06T06:42:07.919Z,22.63
2019-04-06T06:44:36.738Z,23.80
2019-04-06T06:47:05.390Z,22.93
2019-04-06T06:49:34.160Z,23.27
2019-04-06T06:52:02.844Z,23.33
2019-04-06T06:54:31.700Z,23.27
2019-04-06T06:57:00.731Z,23.42
2019-04-06T06:59:29.313Z,24.47
2019-04-06T07:01:57.946Z,24.77
2019-04-06T07:04:26.570Z,24.70
2019-04-06T07:06:55.019Z,24.00
2019-04-06T07:09:23.536Z,25.60
2019-04-06T07:11:53.681Z,24.20
2019-04-06T07:14:22.339Z,24.63
2019-04-06T07:16:50.851Z,24.33
2019-04-06T07:19:19.585Z,24.05
2019-04-06T07:21:48.059Z,24.43
2019-04-06T07:24:16.580Z,23.87
2019-04-06T07:26:45.161Z,24.55
2019-04-06T07:29:13.870Z,26.20
2019-04-06T07:31:42.443Z,25.62
2019-04-06T07:34:11.120Z,25.05
2019-04-06T07:36:39.610Z,25.02
2019-04-06T07:39:08.292Z,23.05
2019-04-06T07:41:37.011Z,26.12
2019-04-06T07:44:06.172Z,27.30
2019-04-06T07:46:35.174Z,26.35
2019-04-06T07:49:09.317Z,27.55
2019-04-06T07:51:34.312Z,27.90
2019-04-06T07:54:03.151Z,28.15
2019-04-06T07:56:31.657Z,26.80
2019-04-06T07:59:00.940Z,27.15
2019-04-06T08:01:29.613Z,29.00
2019-04-06T08:03:58.346Z,29.18
2019-04-06T08:06:27.214Z,30.75
2019-04-06T08:08:55.884Z,31.20
2019-04-06T08:11:24.646Z,33.00
2019-04-06T08:13:53.894Z,34.35
2019-04-06T08:16:22.615Z,33.60
2019-04-06T08:18:51.285Z,34.48
2019-04-06T08:21:20.356Z,35.20
2019-04-06T08:23:48.945Z,35.52
2019-04-06T08:26:17.809Z,35.30
2019-04-06T08:28:46.637Z,34.60
2019-04-06T08:31:16.186Z,33.50
2019-04-06T08:33:45.046Z,35.85
2019-04-06T08:36:13.629Z,33.48
2019-04-06T08:38:42.454Z,33.45
2019-04-06T08:41:11.177Z,35.43
2019-04-06T08:43:39.849Z,32.93
2019-04-06T08:46:08.516Z,39.38
2019-04-06T08:48:37.288Z,30.43
2019-04-06T08:51:06.039Z,32.10
2019-04-06T08:53:34.757Z,32.00
2019-04-06T08:56:03.347Z,32.90
2019-04-06T08:58:32.077Z,35.00
2019-04-06T09:01:00.956Z,33.80
2019-04-06T09:03:29.627Z,33.50
2019-04-06T09:05:58.371Z,35.88
2019-04-06T09:08:28.458Z,34.58
2019-04-06T09:10:57.173Z,35.60
2019-04-06T09:13:25.891Z,36.10
2019-04-06T09:15:54.549Z,35.13
2019-04-06T09:18:23.101Z,34.85
2019-04-06T09:20:51.617Z,36.28
2019-04-06T09:23:20.283Z,34.98
2019-04-06T09:25:48.859Z,34.50
2019-04-06T09:28:17.562Z,32.25
2019-04-06T09:30:47.786Z,33.10
2019-04-06T09:33:17.449Z,34.55
2019-04-06T09:35:46.470Z,34.08
2019-04-06T09:38:19.744Z,33.15
2019-04-06T09:40:51.983Z,33.67
2019-04-06T09:43:22.205Z,33.00
2019-04-06T09:46:02.347Z,31.00
2019-04-06T09:48:35.954Z,31.57
2019-04-06T09:51:23.997Z,31.75
2019-04-06T09:54:12.193Z,33.30
2019-04-06T09:56:44.131Z,31.52
2019-04-06T09:59:36.385Z,29.15
2019-04-06T10:02:10.425Z,27.80
2019-04-06T10:04:58.551Z,27.27
2019-04-06T10:07:45.423Z,27.05
2019-04-06T10:10:33.250Z,28.62
2019-04-06T10:13:19.636Z,27.13
2019-04-06T10:16:00.174Z,29.07
2019-04-06T10:18:34.905Z,28.45
2019-04-06T10:21:12.478Z,28.65
2019-04-06T10:23:50.100Z,28.35
2019-04-06T10:26:24.739Z,29.00
2019-04-06T10:29:19.851Z,28.12
2019-04-06T10:32:07.379Z,27.25
2019-04-06T10:34:40.628Z,27.70
2019-04-06T10:37:29.909Z,27.50
2019-04-06T10:40:18.220Z,26.37
2019-04-06T10:42:52.812Z,22.15
2019-04-06T10:45:46.505Z,20.62
2019-04-06T10:48:27.263Z,21.75
2019-04-06T10:51:06.552Z,23.65
2019-04-06T10:53:42.078Z,21.40
2019-04-06T10:56:16.323Z,21.90
2019-04-06T10:58:58.092Z,22.77
2019-04-06T11:01:29.811Z,22.77
2019-04-06T11:04:05.041Z,21.80
2019-04-06T11:06:41.297Z,21.23
2019-04-06T11:09:16.965Z,21.10
2019-04-06T11:11:51.215Z,20.00
2019-04-06T11:14:36.875Z,20.20
2019-04-06T11:17:27.390Z,20.70
2019-04-06T11:20:09.487Z,19.82
2019-04-06T11:22:45.056Z,18.70
2019-04-06T11:25:35.781Z,19.42
2019-04-06T11:28:28.636Z,21.07
2019-04-06T11:31:12.044Z,18.55
2019-04-06T11:33:59.004Z,19.02
2019-04-06T11:36:36.336Z,19.57
2019-04-06T11:39:15.153Z,18.85
2019-04-06T11:41:57.156Z,18.32
2019-04-06T11:44:45.400Z,16.50
2019-04-06T11:47:20.800Z,19.05
2019-04-06T11:49:59.661Z,19.17
2019-04-06T11:52:38.349Z,20.23
2019-04-06T11:55:15.112Z,20.72
2019-04-06T11:57:58.067Z,20.12
2019-04-06T12:00:34.629Z,21.65
2019-04-06T12:03:09.421Z,24.72
2019-04-06T12:05:47.616Z,26.52
2019-04-06T12:08:34.828Z,23.22
2019-04-06T12:11:12.501Z,22.40
2019-04-06T12:13:52.595Z,21.97
2019-04-06T12:16:31.441Z,21.90
2019-04-06T12:19:15.171Z,23.12
2019-04-06T12:22:07.372Z,22.42
2019-04-06T12:25:00.521Z,24.82
2019-04-06T12:27:39.527Z,23.05
2019-04-06T12:30:15.240Z,23.73
2019-04-06T12:33:02.329Z,23.90
2019-04-06T12:35:38.700Z,23.60
2019-04-06T12:38:16.635Z,23.10
2019-04-06T12:41:01.252Z,23.30
2019-04-06T12:43:45.367Z,21.93
2019-04-06T12:46:20.245Z,21.52
2019-04-06T12:49:04.902Z,23.00
2019-04-06T12:51:40.878Z,21.60
2019-04-06T12:54:23.830Z,21.73
2019-04-06T12:57:01.012Z,23.60
2019-04-06T12:59:35.313Z,23.30
2019-04-06T13:02:25.122Z,22.62
2019-04-06T13:05:16.657Z,21.90
2019-04-06T13:07:52.972Z,21.48
2019-04-06T13:10:28.516Z,22.80
2019-04-06T13:13:10.141Z,22.52
2019-04-06T13:15:51.375Z,21.73
2019-04-06T13:18:35.231Z,21.20
2019-04-06T13:21:12.521Z,22.85
2019-04-06T13:23:49.866Z,20.88
2019-04-06T13:26:41.348Z,21.48
2019-04-06T13:29:16.119Z,22.10
2019-04-06T13:32:01.796Z,22.15
2019-04-06T13:34:52.250Z,22.07
2019-04-06T13:37:26.496Z,21.07
2019-04-06T13:40:03.244Z,23.47
2019-04-06T13:42:54.023Z,22.15
2019-04-06T13:45:42.460Z,24.72
2019-04-06T13:48:22.459Z,22.90
2019-04-06T13:51:01.303Z,21.93
2019-04-06T13:53:55.050Z,23.67
2019-04-06T13:56:46.736Z,23.10
2019-04-06T13:59:28.086Z,24.27
2019-04-06T14:02:06.840Z,26.00
2019-04-06T14:04:42.130Z,24.20
2019-04-06T14:07:27.080Z,25.57
2019-04-06T14:10:15.550Z,24.63
2019-04-06T14:12:48.471Z,23.85
2019-04-06T14:15:34.203Z,22.65
2019-04-06T14:18:21.747Z,21.10
2019-04-06T14:21:13.484Z,19.40
2019-04-06T14:23:46.291Z,19.77
2019-04-06T14:26:25.416Z,21.15
2019-04-06T14:29:08.371Z,19.57
2019-04-06T14:31:57.841Z,19.20
2019-04-06T14:34:50.010Z,18.90
2019-04-06T14:37:24.850Z,20.20
2019-04-06T14:40:13.962Z,20.37
2019-04-06T14:42:51.423Z,19.52
2019-04-06T14:45:32.227Z,20.65
2019-04-06T14:48:10.693Z,21.23
2019-04-06T14:50:41.240Z,21.55
2019-04-06T14:53:16.130Z,22.77
2019-04-06T14:55:57.108Z,21.20
2019-04-06T14:58:41.342Z,22.05
2019-04-06T15:01:20.543Z,20.55
2019-04-06T15:04:02.596Z,20.88
2019-04-06T15:06:37.775Z,20.55
2019-04-06T15:09:26.763Z,20.95
2019-04-06T15:12:19.240Z,25.00
2019-04-06T15:14:53.489Z,24.75
2019-04-06T15:17:27.967Z,23.25
2019-04-06T15:20:11.187Z,28.55
2019-04-06T15:23:01.960Z,24.15
2019-04-06T15:25:41.216Z,24.23
2019-04-06T15:28:24.539Z,24.95
2019-04-06T15:30:55.751Z,23.02
2019-04-06T15:33:46.159Z,25.82
2019-04-06T15:36:36.498Z,25.52
2019-04-06T15:39:16.119Z,23.90
2019-04-06T15:42:06.964Z,25.08
2019-04-06T15:44:41.356Z,23.62
2019-04-06T15:47:31.785Z,22.70
2019-04-06T15:50:19.609Z,24.45
2019-04-06T15:53:02.889Z,23.60
2019-04-06T15:55:37.343Z,22.22
2019-04-06T15:58:26.339Z,22.42
2019-04-06T16:01:02.816Z,20.92
2019-04-06T16:03:50.610Z,22.05
2019-04-06T16:06:30.188Z,20.20
2019-04-06T16:09:19.189Z,21.27
2019-04-06T16:12:09.475Z,20.40
2019-04-06T16:14:49.694Z,23.57
2019-04-06T16:17:24.206Z,21.42
2019-04-06T16:19:56.607Z,21.30
2019-04-06T16:22:40.605Z,20.23
2019-04-06T16:25:27.212Z,21.25
2019-04-06T16:28:05.001Z,20.77
2019-04-06T16:30:42.610Z,23.73
2019-04-06T16:33:21.383Z,24.32
2019-04-06T16:36:00.097Z,22.93
2019-04-06T16:38:41.537Z,21.70
2019-04-06T16:41:33.784Z,21.17
2019-04-06T16:44:09.342Z,21.68
2019-04-06T16:47:01.511Z,22.40
2019-04-06T16:49:40.425Z,21.48
2019-04-06T16:52:12.643Z,23.45
2019-04-06T16:54:54.471Z,23.90
2019-04-06T16:57:47.054Z,21.65
2019-04-06T17:00:30.845Z,21.52
2019-04-06T17:03:10.691Z,19.75
2019-04-06T17:06:05.087Z,20.17
2019-04-06T17:08:42.536Z,20.45
2019-04-06T17:11:19.893Z,20.17
2019-04-06T17:14:04.504Z,19.30
2019-04-06T17:16:39.123Z,19.35
2019-04-06T17:19:31.244Z,18.60
2019-04-06T17:22:14.788Z,18.52
2019-04-06T17:24:50.292Z,18.77
2019-04-06T17:27:21.960Z,18.80
2019-04-06T17:29:57.610Z,20.40
2019-04-06T17:32:40.015Z,19.25
2019-04-06T17:35:15.813Z,20.82
2019-04-06T17:37:52.167Z,20.50
2019-04-06T17:40:46.217Z,19.57
2019-04-06T17:43:31.984Z,22.40
2019-04-06T17:46:12.807Z,26.05
2019-04-06T17:48:49.561Z,26.35
2019-04-06T17:51:40.839Z,27.10
2019-04-06T17:54:32.092Z,26.00
2019-04-06T17:57:21.041Z,25.40
2019-04-06T17:59:57.342Z,26.02
2019-04-06T18:02:50.907Z,27.07
2019-04-06T18:05:37.341Z,26.20
2019-04-06T18:08:28.158Z,25.82
2019-04-06T18:11:18.811Z,24.75
2019-04-06T18:13:57.751Z,24.52
2019-04-06T18:16:32.893Z,24.18
2019-04-06T18:19:04.548Z,24.18
2019-04-06T18:21:39.146Z,25.08
2019-04-06T18:24:11.174Z,23.20
2019-04-06T18:26:42.530Z,23.80
2019-04-06T18:29:17.435Z,23.37
2019-04-06T18:31:51.804Z,24.00
2019-04-06T18:34:26.658Z,23.00
2019-04-06T18:37:01.375Z,24.75
2019-04-06T18:39:32.538Z,25.55
2019-04-06T18:42:06.753Z,25.15
2019-04-06T18:44:37.961Z,26.55
2019-04-06T18:47:12.950Z,28.17
2019-04-06T18:49:44.301Z,31.23
2019-04-06T18:52:15.570Z,33.57
2019-04-06T18:54:46.897Z,35.03
2019-04-06T18:57:21.934Z,36.13
2019-04-06T18:59:53.105Z,37.83
2019-04-06T19:02:25.011Z,37.53
2019-04-06T19:04:56.926Z,35.80
2019-04-06T19:07:28.293Z,34.73
2019-04-06T19:10:02.830Z,36.40
2019-04-06T19:12:35.228Z,34.37
2019-04-06T19:15:09.558Z,34.73
2019-04-06T19:17:42.314Z,35.70
2019-04-06T19:20:12.872Z,35.93
2019-04-06T19:22:47.946Z,34.07
2019-04-06T19:25:19.649Z,35.27
2019-04-06T19:27:49.780Z,32.17
2019-04-06T19:30:21.307Z,32.33
2019-04-06T19:32:52.532Z,35.37
2019-04-06T19:35:23.771Z,34.67
2019-04-06T19:37:55.219Z,33.83
2019-04-06T19:40:26.953Z,34.67
2019-04-06T19:42:58.221Z,35.67
2019-04-06T19:45:30.360Z,34.48
2019-04-06T19:48:02.066Z,36.67
2019-04-06T19:50:33.715Z,35.50
2019-04-06T19:53:04.910Z,35.35
2019-04-06T19:55:36.140Z,36.67
2019-04-06T19:58:08.890Z,36.57
2019-04-06T20:00:39.197Z,36.00
2019-04-06T20:03:11.066Z,36.47
2019-04-06T20:05:42.423Z,36.10
2019-04-06T20:08:14.203Z,37.67
2019-04-06T20:10:45.378Z,36.43
2019-04-06T20:13:19.959Z,37.73
2019-04-06T20:15:51.241Z,38.20
2019-04-06T20:18:21.475Z,35.47
2019-04-06T20:20:57.649Z,35.37
2019-04-06T20:23:28.810Z,36.17
2019-04-06T20:25:58.963Z,34.23
2019-04-06T20:28:28.921Z,34.07
2019-04-06T20:31:00.257Z,33.47
2019-04-06T20:33:45.985Z,37.17
2019-04-06T20:36:05.017Z,35.30
2019-04-06T20:38:36.726Z,37.20
2019-04-06T20:41:07.468Z,36.10
2019-04-06T20:43:38.810Z,35.93
2019-04-06T20:46:10.062Z,35.03
2019-04-06T20:48:44.828Z,34.13
2019-04-06T20:51:15.871Z,31.50
2019-04-06T20:53:47.937Z,33.47
2019-04-06T20:56:22.530Z,29.80
2019-04-06T20:58:53.855Z,25.43
2019-04-06T21:01:28.761Z,25.70
2019-04-06T21:04:02.622Z,29.37
2019-04-06T21:06:35.169Z,30.20
2019-04-06T21:09:10.132Z,31.77
2019-04-06T21:11:39.421Z,31.30
2019-04-06T21:14:11.150Z,31.37
2019-04-06T21:16:42.682Z,29.40
2019-04-06T21:19:15.872Z,27.63
2019-04-06T21:21:50.407Z,26.97
2019-04-06T21:24:19.507Z,29.63
2019-04-06T21:26:50.728Z,30.43
2019-04-06T21:29:21.892Z,29.57
2019-04-06T21:31:53.251Z,28.40
2019-04-06T21:34:28.139Z,28.20
2019-04-06T21:37:03.021Z,28.03
2019-04-06T21:39:34.251Z,26.90
2019-04-06T21:42:05.704Z,27.03
2019-04-06T21:44:36.938Z,27.33
2019-04-06T21:47:08.342Z,26.37
2019-04-06T21:49:38.977Z,24.97
2019-04-06T21:52:10.224Z,25.27
2019-04-06T21:54:41.429Z,23.07
2019-04-06T21:57:12.907Z,24.03
2019-04-06T21:59:44.099Z,24.27
2019-04-06T22:02:15.820Z,25.20
2019-04-06T22:04:47.079Z,25.43
2019-04-06T22:07:17.793Z,26.00
2019-04-06T22:09:49.200Z,25.90
2019-04-06T22:12:20.348Z,25.07
2019-04-06T22:14:51.637Z,26.23
2019-04-06T22:17:23.274Z,26.03
2019-04-06T22:19:56.585Z,25.07
2019-04-06T22:22:27.677Z,23.73
2019-04-06T22:24:58.939Z,24.87
2019-04-06T22:27:30.167Z,23.73
2019-04-06T22:30:03.599Z,23.03
2019-04-06T22:32:35.442Z,23.83
2019-04-06T22:35:11.032Z,23.90
2019-04-06T22:37:42.634Z,21.40
2019-04-06T22:40:13.241Z,18.73
2019-04-06T22:42:45.115Z,19.73
2019-04-06T22:45:19.007Z,20.17
2019-04-06T22:47:50.829Z,20.33
2019-04-06T22:50:22.099Z,19.83
2019-04-06T22:52:53.276Z,22.00
2019-04-06T22:55:27.792Z,22.07
2019-04-06T22:57:59.804Z,22.97
2019-04-06T23:00:37.729Z,24.70
2019-04-06T23:03:21.226Z,23.73
2019-04-06T23:06:04.041Z,22.80
2019-04-06T23:08:38.387Z,22.00
2019-04-06T23:11:09.634Z,22.73
2019-04-06T23:13:40.803Z,21.43
2019-04-06T23:16:12.636Z,20.17
2019-04-06T23:18:41.347Z,22.03
2019-04-06T23:21:15.790Z,22.10
2019-04-06T23:23:47.432Z,24.23
2019-04-06T23:26:22.051Z,24.73
2019-04-06T23:28:53.885Z,24.37
2019-04-06T23:31:24.343Z,22.63
2019-04-06T23:33:58.514Z,24.30
2019-04-06T23:36:29.190Z,24.47
2019-04-06T23:39:00.459Z,24.30
2019-04-06T23:41:32.293Z,25.63
2019-04-06T23:44:03.430Z,25.70
2019-04-06T23:46:35.031Z,26.40
2019-04-06T23:49:06.514Z,23.97
2019-04-06T23:51:41.508Z,25.67
2019-04-06T23:54:12.770Z,26.90
2019-04-06T23:56:43.931Z,24.90
2019-04-06T23:59:14.179Z,24.37
